createdAt,value
2023-05-18T00:00:05.419Z,1022.74
2023-05-18T00:01:05.412Z,1022.78
2023-05-18T00:02:05.438Z,1022.79
2023-05-18T00:03:05.510Z,1022.77
2023-05-18T00:04:05.502Z,1022.85
2023-05-18T00:05:05.373Z,1022.82
2023-05-18T00:06:05.364Z,1022.83
2023-05-18T00:07:05.507Z,1022.83
2023-05-18T00:08:05.347Z,1022.86
2023-05-18T00:09:05.332Z,1022.88
2023-05-18T00:10:05.438Z,1022.88
2023-05-18T00:11:05.331Z,1022.89
2023-05-18T00:12:05.317Z,1022.88
2023-05-18T00:13:05.301Z,1022.90
2023-05-18T00:14:05.285Z,1022.95
2023-05-18T00:15:05.282Z,1022.97
2023-05-18T00:16:05.310Z,1022.96
2023-05-18T00:17:05.277Z,1022.94
2023-05-18T00:18:05.280Z,1022.92
2023-05-18T00:19:05.311Z,1022.96
2023-05-18T00:20:05.350Z,1022.93
2023-05-18T00:21:05.219Z,1022.98
2023-05-18T00:22:05.206Z,1022.97
2023-05-18T00:23:05.199Z,1023.02
2023-05-18T00:24:05.191Z,1022.95
2023-05-18T00:25:05.239Z,1023.01
2023-05-18T00:26:05.165Z,1022.95
2023-05-18T00:27:05.202Z,1022.99
2023-05-18T00:28:05.164Z,1022.99
2023-05-18T00:29:05.147Z,1022.96
2023-05-18T00:30:05.158Z,1023.00
2023-05-18T00:31:05.163Z,1023.01
2023-05-18T00:32:05.152Z,1022.98
2023-05-18T00:33:05.135Z,1023.01
2023-05-18T00:34:05.096Z,1022.98
2023-05-18T00:35:05.083Z,1022.99
2023-05-18T00:36:05.076Z,1023.00
2023-05-18T00:37:05.074Z,1022.99
2023-05-18T00:38:05.055Z,1023.01
2023-05-18T00:39:05.059Z,1023.02
2023-05-18T00:40:05.040Z,1023.03
2023-05-18T00:41:05.030Z,1023.06
2023-05-18T00:42:05.033Z,1023.02
2023-05-18T00:43:05.008Z,1023.01
2023-05-18T00:44:05.176Z,1023.02
2023-05-18T00:45:05.016Z,1023.02
2023-05-18T00:46:05.130Z,1023.04
2023-05-18T00:47:04.985Z,1023.08
2023-05-18T00:48:04.997Z,1023.09
2023-05-18T00:49:04.952Z,1023.09
2023-05-18T00:50:04.943Z,1023.06
2023-05-18T00:51:04.929Z,1023.09
2023-05-18T00:52:04.923Z,1023.11
2023-05-18T00:53:04.916Z,1023.13
2023-05-18T00:54:04.901Z,1023.10
2023-05-18T00:55:04.890Z,1023.11
2023-05-18T00:56:04.885Z,1023.13
2023-05-18T00:57:04.875Z,1023.12
2023-05-18T00:58:04.883Z,1023.13
2023-05-18T00:59:04.862Z,1023.16
2023-05-18T01:00:04.842Z,1023.16
2023-05-18T01:01:04.866Z,1023.14
2023-05-18T01:02:04.850Z,1023.18
2023-05-18T01:03:04.844Z,1023.20
2023-05-18T01:04:04.935Z,1023.20
2023-05-18T01:05:04.871Z,1023.19
2023-05-18T01:06:04.785Z,1023.20
2023-05-18T01:07:04.775Z,1023.20
2023-05-18T01:08:04.762Z,1023.18
2023-05-18T01:09:04.771Z,1023.23
2023-05-18T01:10:04.743Z,1023.20
2023-05-18T01:11:04.790Z,1023.25
2023-05-18T01:12:04.726Z,1023.23
2023-05-18T01:13:04.715Z,1023.25
2023-05-18T01:14:04.756Z,1023.27
2023-05-18T01:15:04.753Z,1023.28
2023-05-18T01:16:04.685Z,1023.28
2023-05-18T01:17:04.706Z,1023.25
2023-05-18T01:18:04.734Z,1023.29
2023-05-18T01:19:04.725Z,1023.30
2023-05-18T01:20:04.647Z,1023.32
2023-05-18T01:21:04.689Z,1023.34
2023-05-18T01:22:04.628Z,1023.32
2023-05-18T01:23:04.621Z,1023.35
2023-05-18T01:24:04.622Z,1023.34
2023-05-18T01:25:04.612Z,1023.38
2023-05-18T01:26:04.590Z,1023.36
2023-05-18T01:27:04.579Z,1023.35
2023-05-18T01:28:04.569Z,1023.37
2023-05-18T01:29:04.566Z,1023.38
2023-05-18T01:30:04.551Z,1023.38
2023-05-18T01:31:04.616Z,1023.34
2023-05-18T01:32:04.531Z,1023.35
2023-05-18T01:33:04.579Z,1023.38
2023-05-18T01:34:04.508Z,1023.36
2023-05-18T01:35:04.497Z,1023.36
2023-05-18T01:36:04.494Z,1023.37
2023-05-18T01:37:04.493Z,1023.35
2023-05-18T01:38:04.472Z,1023.35
2023-05-18T01:39:04.465Z,1023.39
2023-05-18T01:40:04.457Z,1023.36
2023-05-18T01:41:04.496Z,1023.35
2023-05-18T01:42:04.456Z,1023.34
2023-05-18T01:43:04.424Z,1023.34
2023-05-18T01:44:04.411Z,1023.34
2023-05-18T01:45:04.397Z,1023.27
2023-05-18T01:46:04.403Z,1023.29
2023-05-18T01:47:04.384Z,1023.29
2023-05-18T01:48:04.417Z,1023.30
2023-05-18T01:49:04.363Z,1023.31
2023-05-18T01:50:04.355Z,1023.32
2023-05-18T01:51:04.423Z,1023.31
2023-05-18T01:52:04.329Z,1023.31
2023-05-18T01:53:04.324Z,1023.31
2023-05-18T01:54:04.335Z,1023.32
2023-05-18T01:55:04.297Z,1023.28
2023-05-18T01:56:04.295Z,1023.31
2023-05-18T01:57:04.342Z,1023.31
2023-05-18T01:58:04.277Z,1023.32
2023-05-18T01:59:04.261Z,1023.33
2023-05-18T02:00:04.249Z,1023.35
2023-05-18T02:01:04.240Z,1023.35
2023-05-18T02:02:04.258Z,1023.42
2023-05-18T02:03:04.308Z,1023.40
2023-05-18T02:04:04.288Z,1023.39
2023-05-18T02:05:04.197Z,1023.36
2023-05-18T02:06:04.189Z,1023.38
2023-05-18T02:07:04.195Z,1023.39
2023-05-18T02:08:04.170Z,1023.39
2023-05-18T02:09:04.188Z,1023.40
2023-05-18T02:10:04.150Z,1023.43
2023-05-18T02:11:04.146Z,1023.41
2023-05-18T02:12:04.133Z,1023.44
2023-05-18T02:13:04.116Z,1023.42
2023-05-18T02:14:04.106Z,1023.41
2023-05-18T02:15:04.102Z,1023.38
2023-05-18T02:16:04.123Z,1023.43
2023-05-18T02:17:04.087Z,1023.39
2023-05-18T02:18:04.132Z,1023.41
2023-05-18T02:19:04.155Z,1023.42
2023-05-18T02:20:04.051Z,1023.41
2023-05-18T02:21:04.031Z,1023.41
2023-05-18T02:22:04.024Z,1023.41
2023-05-18T02:23:04.016Z,1023.42
2023-05-18T02:24:04.001Z,1023.42
2023-05-18T02:25:03.989Z,1023.42
2023-05-18T02:26:04.008Z,1023.45
2023-05-18T02:27:03.974Z,1023.42
2023-05-18T02:28:03.971Z,1023.45
2023-05-18T02:29:03.947Z,1023.44
2023-05-18T02:30:03.938Z,1023.45
2023-05-18T02:31:03.928Z,1023.43
2023-05-18T02:32:03.959Z,1023.45
2023-05-18T02:33:03.965Z,1023.43
2023-05-18T02:34:03.900Z,1023.40
2023-05-18T02:35:03.886Z,1023.42
2023-05-18T02:36:03.879Z,1023.45
2023-05-18T02:37:03.868Z,1023.46
2023-05-18T02:38:03.857Z,1023.50
2023-05-18T02:39:03.846Z,1023.54
2023-05-18T02:40:03.839Z,1023.52
2023-05-18T02:41:03.828Z,1023.56
2023-05-18T02:42:03.814Z,1023.55
2023-05-18T02:43:03.809Z,1023.54
2023-05-18T02:44:03.796Z,1023.56
2023-05-18T02:45:03.780Z,1023.54
2023-05-18T02:46:03.787Z,1023.52
2023-05-18T02:47:03.769Z,1023.53
2023-05-18T02:48:03.825Z,1023.56
2023-05-18T02:49:03.743Z,1023.56
2023-05-18T02:50:03.776Z,1023.59
2023-05-18T02:51:03.735Z,1023.57
2023-05-18T02:52:03.713Z,1023.59
2023-05-18T02:53:03.706Z,1023.55
2023-05-18T02:54:03.841Z,1023.58
2023-05-18T02:55:03.689Z,1023.59
2023-05-18T02:56:03.683Z,1023.60
2023-05-18T02:57:03.662Z,1023.60
2023-05-18T02:58:03.660Z,1023.61
2023-05-18T02:59:03.934Z,1023.58
2023-05-18T03:00:03.632Z,1023.64
2023-05-18T03:01:03.655Z,1023.61
2023-05-18T03:02:03.638Z,1023.63
2023-05-18T03:03:03.657Z,1023.63
2023-05-18T03:04:03.605Z,1023.62
2023-05-18T03:05:03.580Z,1023.60
2023-05-18T03:06:03.569Z,1023.65
2023-05-18T03:07:03.562Z,1023.64
2023-05-18T03:08:03.553Z,1023.68
2023-05-18T03:09:03.539Z,1023.67
2023-05-18T03:10:03.528Z,1023.72
2023-05-18T03:11:03.527Z,1023.71
2023-05-18T03:12:03.513Z,1023.68
2023-05-18T03:13:03.500Z,1023.69
2023-05-18T03:14:03.489Z,1023.66
2023-05-18T03:15:03.486Z,1023.68
2023-05-18T03:16:03.472Z,1023.70
2023-05-18T03:17:03.557Z,1023.70
2023-05-18T03:18:03.521Z,1023.71
2023-05-18T03:19:03.476Z,1023.72
2023-05-18T03:20:03.436Z,1023.71
2023-05-18T03:21:03.431Z,1023.70
2023-05-18T03:22:03.404Z,1023.69
2023-05-18T03:23:03.400Z,1023.68
2023-05-18T03:24:03.402Z,1023.69
2023-05-18T03:25:03.374Z,1023.73
2023-05-18T03:26:03.473Z,1023.74
2023-05-18T03:27:03.355Z,1023.72
2023-05-18T03:28:03.359Z,1023.71
2023-05-18T03:29:03.336Z,1023.77
2023-05-18T03:30:03.322Z,1023.72
2023-05-18T03:31:03.347Z,1023.74
2023-05-18T03:32:03.301Z,1023.73
2023-05-18T03:33:03.340Z,1023.78
2023-05-18T03:34:03.283Z,1023.79
2023-05-18T03:35:03.273Z,1023.76
2023-05-18T03:36:03.277Z,1023.75
2023-05-18T03:37:03.256Z,1023.74
2023-05-18T03:38:03.247Z,1023.76
2023-05-18T03:39:03.233Z,1023.76
2023-05-18T03:40:03.228Z,1023.78
2023-05-18T03:41:03.209Z,1023.84
2023-05-18T03:42:03.212Z,1023.81
2023-05-18T03:43:03.189Z,1023.85
2023-05-18T03:44:03.179Z,1023.85
2023-05-18T03:45:03.170Z,1023.85
2023-05-18T03:46:03.188Z,1023.85
2023-05-18T03:47:03.149Z,1023.84
2023-05-18T03:48:03.171Z,1023.83
2023-05-18T03:49:03.133Z,1023.82
2023-05-18T03:50:03.120Z,1023.83
2023-05-18T03:51:03.109Z,1023.88
2023-05-18T03:52:03.106Z,1023.87
2023-05-18T03:53:03.113Z,1023.90
2023-05-18T03:54:03.078Z,1023.89
2023-05-18T03:55:03.071Z,1023.90
2023-05-18T03:56:03.075Z,1023.93
2023-05-18T03:57:03.061Z,1023.93
2023-05-18T03:58:03.045Z,1023.91
2023-05-18T03:59:03.024Z,1023.93
2023-05-18T04:00:03.029Z,1023.93
2023-05-18T04:01:03.010Z,1023.91
2023-05-18T04:02:03.066Z,1023.94
2023-05-18T04:03:03.090Z,1023.99
2023-05-18T04:04:03.020Z,1023.98
2023-05-18T04:05:02.965Z,1023.93
2023-05-18T04:06:02.958Z,1023.98
2023-05-18T04:07:02.952Z,1023.96
2023-05-18T04:08:02.934Z,1024.00
2023-05-18T04:09:02.937Z,1024.00
2023-05-18T04:10:02.913Z,1024.01
2023-05-18T04:11:02.904Z,1024.02
2023-05-18T04:12:02.905Z,1024.01
2023-05-18T04:13:02.897Z,1024.02
2023-05-18T04:14:02.876Z,1024.01
2023-05-18T04:15:02.865Z,1024.02
2023-05-18T04:16:02.877Z,1024.04
2023-05-18T04:17:02.845Z,1024.02
2023-05-18T04:18:02.886Z,1024.05
2023-05-18T04:19:03.860Z,1024.08
2023-05-18T04:20:02.826Z,1024.09
2023-05-18T04:21:02.807Z,1024.10
2023-05-18T04:22:02.795Z,1024.15
2023-05-18T04:23:02.787Z,1024.13
2023-05-18T04:24:02.815Z,1024.13
2023-05-18T04:25:02.768Z,1024.15
2023-05-18T04:26:02.752Z,1024.12
2023-05-18T04:27:02.753Z,1024.15
2023-05-18T04:28:02.740Z,1024.12
2023-05-18T04:29:02.745Z,1024.15
2023-05-18T04:30:02.720Z,1024.18
2023-05-18T04:31:02.711Z,1024.16
2023-05-18T04:32:02.721Z,1024.22
2023-05-18T04:33:02.744Z,1024.19
2023-05-18T04:34:02.684Z,1024.23
2023-05-18T04:35:02.673Z,1024.22
2023-05-18T04:36:02.665Z,1024.18
2023-05-18T04:37:02.661Z,1024.22
2023-05-18T04:38:02.681Z,1024.23
2023-05-18T04:39:02.640Z,1024.27
2023-05-18T04:40:02.634Z,1024.27
2023-05-18T04:41:02.624Z,1024.29
2023-05-18T04:42:02.615Z,1024.28
2023-05-18T04:43:02.605Z,1024.29
2023-05-18T04:44:02.692Z,1024.30
2023-05-18T04:45:02.592Z,1024.34
2023-05-18T04:46:02.623Z,1024.34
2023-05-18T04:47:02.571Z,1024.36
2023-05-18T04:48:02.636Z,1024.38
2023-05-18T04:49:02.564Z,1024.36
2023-05-18T04:50:02.560Z,1024.35
2023-05-18T04:51:02.539Z,1024.36
2023-05-18T04:52:02.529Z,1024.36
2023-05-18T04:53:02.575Z,1024.36
2023-05-18T04:54:02.514Z,1024.43
2023-05-18T04:55:02.517Z,1024.42
2023-05-18T04:56:02.513Z,1024.40
2023-05-18T04:57:02.490Z,1024.39
2023-05-18T04:58:02.491Z,1024.41
2023-05-18T04:59:02.477Z,1024.42
2023-05-18T05:00:02.472Z,1024.39
2023-05-18T05:01:02.528Z,1024.41
2023-05-18T05:02:02.451Z,1024.44
2023-05-18T05:03:02.512Z,1024.42
2023-05-18T05:04:02.447Z,1024.42
2023-05-18T05:05:02.430Z,1024.44
2023-05-18T05:06:02.426Z,1024.46
2023-05-18T05:07:02.418Z,1024.49
2023-05-18T05:08:02.410Z,1024.50
2023-05-18T05:09:02.402Z,1024.45
2023-05-18T05:10:02.390Z,1024.42
2023-05-18T05:11:02.384Z,1024.40
2023-05-18T05:12:02.379Z,1024.39
2023-05-18T05:13:02.368Z,1024.40
2023-05-18T05:14:02.372Z,1024.38
2023-05-18T05:15:02.362Z,1024.36
2023-05-18T05:16:02.388Z,1024.37
2023-05-18T05:17:02.343Z,1024.35
2023-05-18T05:18:02.368Z,1024.36
2023-05-18T05:19:02.344Z,1024.37
2023-05-18T05:20:02.322Z,1024.32
2023-05-18T05:21:02.316Z,1024.31
2023-05-18T05:22:02.310Z,1024.32
2023-05-18T05:23:02.386Z,1024.36
2023-05-18T05:24:02.298Z,1024.35
2023-05-18T05:25:03.807Z,1024.38
2023-05-18T05:26:02.288Z,1024.34
2023-05-18T05:27:02.277Z,1024.35
2023-05-18T05:28:02.275Z,1024.40
2023-05-18T05:29:02.265Z,1024.36
2023-05-18T05:30:02.266Z,1024.39
2023-05-18T05:31:02.308Z,1024.39
2023-05-18T05:32:02.276Z,1024.41
2023-05-18T05:33:02.305Z,1024.42
2023-05-18T05:34:02.237Z,1024.43
2023-05-18T05:35:02.229Z,1024.42
2023-05-18T05:36:02.223Z,1024.44
2023-05-18T05:37:02.225Z,1024.42
2023-05-18T05:38:02.211Z,1024.45
2023-05-18T05:39:02.210Z,1024.43
2023-05-18T05:40:02.202Z,1024.46
2023-05-18T05:41:02.201Z,1024.47
2023-05-18T05:42:02.191Z,1024.47
2023-05-18T05:43:02.188Z,1024.53
2023-05-18T05:44:02.182Z,1024.54
2023-05-18T05:45:02.176Z,1024.54
2023-05-18T05:46:02.168Z,1024.56
2023-05-18T05:47:02.201Z,1024.60
2023-05-18T05:48:02.227Z,1024.62
2023-05-18T05:49:02.217Z,1024.63
2023-05-18T05:50:02.206Z,1024.60
2023-05-18T05:51:02.145Z,1024.60
2023-05-18T05:52:02.153Z,1024.62
2023-05-18T05:53:02.142Z,1024.66
2023-05-18T05:54:02.123Z,1024.64
2023-05-18T05:55:02.127Z,1024.67
2023-05-18T05:56:02.124Z,1024.61
2023-05-18T05:57:02.112Z,1024.66
2023-05-18T05:58:02.106Z,1024.64
2023-05-18T05:59:02.150Z,1024.70
2023-05-18T06:00:02.096Z,1024.68
2023-05-18T06:01:02.103Z,1024.66
2023-05-18T06:02:02.160Z,1024.71
2023-05-18T06:03:02.117Z,1024.67
2023-05-18T06:04:02.140Z,1024.69
2023-05-18T06:05:02.075Z,1024.67
2023-05-18T06:06:02.069Z,1024.66
2023-05-18T06:07:02.066Z,1024.67
2023-05-18T06:08:02.060Z,1024.69
2023-05-18T06:09:02.057Z,1024.65
2023-05-18T06:10:02.062Z,1024.69
2023-05-18T06:11:02.041Z,1024.68
2023-05-18T06:12:02.047Z,1024.68
2023-05-18T06:13:02.038Z,1024.67
2023-05-18T06:14:02.037Z,1024.68
2023-05-18T06:15:02.032Z,1024.67
2023-05-18T06:16:02.031Z,1024.66
2023-05-18T06:17:02.023Z,1024.65
2023-05-18T06:18:02.083Z,1024.66
2023-05-18T06:19:02.058Z,1024.66
2023-05-18T06:20:02.009Z,1024.63
2023-05-18T06:21:02.004Z,1024.64
2023-05-18T06:22:02.000Z,1024.63
2023-05-18T06:23:01.993Z,1024.63
2023-05-18T06:24:02.008Z,1024.62
2023-05-18T06:25:01.989Z,1024.64
2023-05-18T06:26:01.984Z,1024.65
2023-05-18T06:27:02.028Z,1024.62
2023-05-18T06:28:01.980Z,1024.61
2023-05-18T06:29:01.973Z,1024.62
2023-05-18T06:30:02.007Z,1024.68
2023-05-18T06:31:01.969Z,1024.68
2023-05-18T06:32:02.047Z,1024.67
2023-05-18T06:33:02.123Z,1024.68
2023-05-18T06:34:01.962Z,1024.67
2023-05-18T06:35:01.957Z,1024.68
2023-05-18T06:36:01.967Z,1024.69
2023-05-18T06:37:01.950Z,1024.70
2023-05-18T06:38:01.954Z,1024.66
2023-05-18T06:39:01.950Z,1024.71
2023-05-18T06:40:01.946Z,1024.69
2023-05-18T06:41:01.954Z,1024.70
2023-05-18T06:42:01.988Z,1024.70
2023-05-18T06:43:01.939Z,1024.72
2023-05-18T06:44:01.936Z,1024.70
2023-05-18T06:45:01.939Z,1024.69
2023-05-18T06:46:02.015Z,1024.69
2023-05-18T06:47:01.932Z,1024.70
2023-05-18T06:48:01.979Z,1024.69
2023-05-18T06:49:01.937Z,1024.72
2023-05-18T06:50:01.930Z,1024.75
2023-05-18T06:51:01.922Z,1024.75
2023-05-18T06:52:01.940Z,1024.77
2023-05-18T06:53:01.927Z,1024.79
2023-05-18T06:54:01.945Z,1024.77
2023-05-18T06:55:01.970Z,1024.79
2023-05-18T06:56:01.919Z,1024.80
2023-05-18T06:57:01.907Z,1024.84
2023-05-18T06:58:01.913Z,1024.79
2023-05-18T06:59:01.907Z,1024.80
2023-05-18T07:00:01.921Z,1024.79
2023-05-18T07:01:01.985Z,1024.77
2023-05-18T07:02:01.959Z,1024.78
2023-05-18T07:03:02.025Z,1024.80
2023-05-18T07:04:02.052Z,1024.77
2023-05-18T07:05:01.893Z,1024.78
2023-05-18T07:06:01.889Z,1024.78
2023-05-18T07:07:01.893Z,1024.80
2023-05-18T07:08:01.908Z,1024.83
2023-05-18T07:09:01.893Z,1024.80
2023-05-18T07:10:01.884Z,1024.78
2023-05-18T07:11:01.889Z,1024.72
2023-05-18T07:12:01.882Z,1024.78
2023-05-18T07:13:01.881Z,1024.73
2023-05-18T07:14:01.889Z,1024.71
2023-05-18T07:15:01.889Z,1024.70
2023-05-18T07:16:01.899Z,1024.71
2023-05-18T07:17:01.881Z,1024.68
2023-05-18T07:18:01.958Z,1024.70
2023-05-18T07:19:01.898Z,1024.67
2023-05-18T07:20:01.873Z,1024.62
2023-05-18T07:21:01.880Z,1024.66
2023-05-18T07:22:01.890Z,1024.66
2023-05-18T07:23:01.886Z,1024.68
2023-05-18T07:24:01.864Z,1024.64
2023-05-18T07:25:01.873Z,1024.64
2023-05-18T07:26:01.964Z,1024.66
2023-05-18T07:27:01.870Z,1024.68
2023-05-18T07:28:01.870Z,1024.67
2023-05-18T07:29:01.866Z,1024.67
2023-05-18T07:30:01.977Z,1024.68
2023-05-18T07:31:01.929Z,1024.70
2023-05-18T07:32:01.927Z,1024.63
2023-05-18T07:33:01.890Z,1024.65
2023-05-18T07:34:01.868Z,1024.64
2023-05-18T07:35:01.861Z,1024.66
2023-05-18T07:36:01.868Z,1024.64
2023-05-18T07:37:01.870Z,1024.60
2023-05-18T07:38:01.866Z,1024.58
2023-05-18T07:39:01.874Z,1024.60
2023-05-18T07:40:01.864Z,1024.60
2023-05-18T07:41:01.864Z,1024.56
2023-05-18T07:42:01.862Z,1024.57
2023-05-18T07:43:01.871Z,1024.57
2023-05-18T07:44:01.862Z,1024.65
2023-05-18T07:45:01.876Z,1024.64
2023-05-18T07:46:01.870Z,1024.67
2023-05-18T07:47:01.899Z,1024.64
2023-05-18T07:48:01.973Z,1024.66
2023-05-18T07:49:01.864Z,1024.68
2023-05-18T07:50:01.870Z,1024.71
2023-05-18T07:51:01.877Z,1024.65
2023-05-18T07:52:01.938Z,1024.67
2023-05-18T07:53:01.875Z,1024.70
2023-05-18T07:54:01.906Z,1024.73
2023-05-18T07:55:01.874Z,1024.70
2023-05-18T07:56:01.927Z,1024.71
2023-05-18T07:57:01.883Z,1024.74
2023-05-18T07:58:01.907Z,1024.74
2023-05-18T07:59:01.872Z,1024.79
2023-05-18T08:00:01.881Z,1024.78
2023-05-18T08:01:01.883Z,1024.81
2023-05-18T08:02:01.936Z,1024.76
2023-05-18T08:03:02.044Z,1024.80
2023-05-18T08:04:01.966Z,1024.80
2023-05-18T08:05:01.889Z,1024.78
2023-05-18T08:06:01.901Z,1024.80
2023-05-18T08:07:01.891Z,1024.80
2023-05-18T08:08:02.984Z,1024.80
2023-05-18T08:09:01.894Z,1024.82
2023-05-18T08:10:01.924Z,1024.66
2023-05-18T08:11:01.900Z,1024.64
2023-05-18T08:12:01.931Z,1024.66
2023-05-18T08:13:01.900Z,1024.67
2023-05-18T08:14:02.089Z,1024.70
2023-05-18T08:15:01.919Z,1024.71
2023-05-18T08:16:11.011Z,1024.71
2023-05-18T08:17:01.926Z,1024.70
2023-05-18T08:18:01.921Z,1024.72
2023-05-18T08:19:01.932Z,1024.69
2023-05-18T08:20:01.914Z,1024.68
2023-05-18T08:21:01.909Z,1024.70
2023-05-18T08:22:01.904Z,1024.74
2023-05-18T08:23:01.902Z,1024.79
2023-05-18T08:24:01.912Z,1024.79
2023-05-18T08:25:01.942Z,1024.73
2023-05-18T08:26:01.899Z,1024.77
2023-05-18T08:27:01.898Z,1024.78
2023-05-18T08:28:01.911Z,1024.79
2023-05-18T08:29:01.893Z,1024.76
2023-05-18T08:30:01.900Z,1024.79
2023-05-18T08:31:01.897Z,1024.77
2023-05-18T08:32:01.916Z,1024.79
2023-05-18T08:33:01.937Z,1024.77
2023-05-18T08:34:01.897Z,1024.79
2023-05-18T08:35:01.873Z,1024.81
2023-05-18T08:36:01.893Z,1024.85
2023-05-18T08:37:01.880Z,1024.81
2023-05-18T08:38:04.040Z,1024.82
2023-05-18T08:39:01.873Z,1024.77
2023-05-18T08:40:01.876Z,1024.82
2023-05-18T08:41:01.874Z,1024.79
2023-05-18T08:42:01.855Z,1024.78
2023-05-18T08:43:01.857Z,1024.79
2023-05-18T08:44:01.852Z,1024.76
2023-05-18T08:45:01.851Z,1024.77
2023-05-18T08:46:01.912Z,1024.77
2023-05-18T08:47:01.842Z,1024.80
2023-05-18T08:48:01.879Z,1024.77
2023-05-18T08:49:01.881Z,1024.82
2023-05-18T08:50:01.896Z,1024.73
2023-05-18T08:51:01.907Z,1024.74
2023-05-18T08:52:01.824Z,1024.89
2023-05-18T08:53:01.818Z,1024.97
2023-05-18T08:54:01.877Z,1024.94
2023-05-18T08:55:01.807Z,1024.95
2023-05-18T08:56:01.808Z,1024.89
2023-05-18T08:57:01.799Z,1024.81
2023-05-18T08:58:01.878Z,1024.75
2023-05-18T08:59:01.821Z,1024.75
2023-05-18T09:00:01.833Z,1024.68
2023-05-18T09:01:01.784Z,1024.68
2023-05-18T09:02:01.855Z,1024.69
2023-05-18T09:03:01.826Z,1024.69
2023-05-18T09:04:01.782Z,1024.73
2023-05-18T09:05:01.838Z,1024.70
2023-05-18T09:06:01.794Z,1024.73
2023-05-18T09:07:01.771Z,1024.77
2023-05-18T09:08:01.769Z,1024.74
2023-05-18T09:09:01.767Z,1024.79
2023-05-18T09:10:01.775Z,1024.79
2023-05-18T09:11:01.762Z,1024.81
2023-05-18T09:12:01.795Z,1024.79
2023-05-18T09:13:01.750Z,1024.75
2023-05-18T09:14:01.749Z,1024.72
2023-05-18T09:15:01.742Z,1024.70
2023-05-18T09:16:01.765Z,1024.71
2023-05-18T09:17:01.737Z,1024.71
2023-05-18T09:18:01.790Z,1024.68
2023-05-18T09:19:01.746Z,1024.68
2023-05-18T09:20:01.753Z,1024.69
2023-05-18T09:21:01.720Z,1024.68
2023-05-18T09:22:01.717Z,1024.72
2023-05-18T09:23:01.744Z,1024.69
2023-05-18T09:24:01.717Z,1024.67
2023-05-18T09:25:01.726Z,1024.66
2023-05-18T09:26:01.714Z,1024.64
2023-05-18T09:27:01.695Z,1024.66
2023-05-18T09:28:01.690Z,1024.64
2023-05-18T09:29:01.695Z,1024.64
2023-05-18T09:30:01.678Z,1024.68
2023-05-18T09:31:01.678Z,1024.66
2023-05-18T09:32:01.759Z,1024.67
2023-05-18T09:33:01.760Z,1024.67
2023-05-18T09:34:01.746Z,1024.64
2023-05-18T09:35:01.661Z,1024.59
2023-05-18T09:36:01.653Z,1024.59
2023-05-18T09:37:01.678Z,1024.59
2023-05-18T09:38:01.641Z,1024.60
2023-05-18T09:39:01.638Z,1024.58
2023-05-18T09:40:01.679Z,1024.60
2023-05-18T09:41:01.629Z,1024.61
2023-05-18T09:42:01.625Z,1024.57
2023-05-18T09:43:01.617Z,1024.55
2023-05-18T09:44:01.616Z,1024.56
2023-05-18T09:45:01.631Z,1024.52
2023-05-18T09:46:01.609Z,1024.53
2023-05-18T09:47:01.784Z,1024.44
2023-05-18T09:48:01.634Z,1024.47
2023-05-18T09:49:01.589Z,1024.46
2023-05-18T09:50:01.625Z,1024.45
2023-05-18T09:51:01.581Z,1024.49
2023-05-18T09:52:01.588Z,1024.47
2023-05-18T09:53:01.571Z,1024.46
2023-05-18T09:54:01.570Z,1024.50
2023-05-18T09:55:01.561Z,1024.48
2023-05-18T09:56:01.556Z,1024.51
2023-05-18T09:57:10.462Z,1024.55
2023-05-18T09:58:01.559Z,1024.51
2023-05-18T09:59:01.544Z,1024.52
2023-05-18T10:00:01.541Z,1024.52
2023-05-18T10:01:01.586Z,1024.49
2023-05-18T10:02:01.529Z,1024.50
2023-05-18T10:03:01.546Z,1024.50
2023-05-18T10:04:01.641Z,1024.49
2023-05-18T10:05:01.517Z,1024.41
2023-05-18T10:06:01.562Z,1024.45
2023-05-18T10:07:01.518Z,1024.40
2023-05-18T10:08:01.508Z,1024.43
2023-05-18T10:09:01.496Z,1024.42
2023-05-18T10:10:01.554Z,1024.49
2023-05-18T10:11:01.490Z,1024.44
2023-05-18T10:12:01.483Z,1024.46
2023-05-18T10:13:01.491Z,1024.45
2023-05-18T10:14:01.474Z,1024.45
2023-05-18T10:15:01.477Z,1024.40
2023-05-18T10:16:01.468Z,1024.41
2023-05-18T10:17:14.423Z,1024.40
2023-05-18T10:18:01.486Z,1024.40
2023-05-18T10:19:01.477Z,1024.37
2023-05-18T10:20:01.447Z,1024.37
2023-05-18T10:21:01.467Z,1024.34
2023-05-18T10:22:01.440Z,1024.31
2023-05-18T10:23:01.432Z,1024.31
2023-05-18T10:24:01.425Z,1024.32
2023-05-18T10:25:01.439Z,1024.26
2023-05-18T10:26:01.414Z,1024.22
2023-05-18T10:27:01.408Z,1024.24
2023-05-18T10:28:01.401Z,1024.26
2023-05-18T10:29:01.399Z,1024.24
2023-05-18T10:30:01.397Z,1024.26
2023-05-18T10:31:01.428Z,1024.28
2023-05-18T10:32:03.321Z,1024.27
2023-05-18T10:33:01.434Z,1024.21
2023-05-18T10:34:01.385Z,1024.19
2023-05-18T10:35:01.388Z,1024.21
2023-05-18T10:36:01.365Z,1024.24
2023-05-18T10:37:01.385Z,1024.20
2023-05-18T10:38:01.435Z,1024.18
2023-05-18T10:39:01.352Z,1024.19
2023-05-18T10:40:01.339Z,1024.13
2023-05-18T10:41:01.338Z,1024.16
2023-05-18T10:42:01.336Z,1024.18
2023-05-18T10:43:01.327Z,1024.17
2023-05-18T10:44:01.364Z,1024.17
2023-05-18T10:45:01.358Z,1024.15
2023-05-18T10:46:01.453Z,1024.18
2023-05-18T10:47:01.380Z,1024.13
2023-05-18T10:48:01.329Z,1024.13
2023-05-18T10:49:01.296Z,1024.12
2023-05-18T10:50:01.292Z,1024.13
2023-05-18T10:51:01.290Z,1024.10
2023-05-18T10:52:01.277Z,1024.10
2023-05-18T10:53:01.275Z,1024.08
2023-05-18T10:54:01.267Z,1024.06
2023-05-18T10:55:01.291Z,1024.10
2023-05-18T10:56:01.255Z,1024.10
2023-05-18T10:57:01.254Z,1024.09
2023-05-18T10:58:01.251Z,1024.04
2023-05-18T10:59:01.242Z,1024.01
2023-05-18T11:00:01.240Z,1023.97
2023-05-18T11:01:01.262Z,1023.97
2023-05-18T11:02:01.293Z,1023.95
2023-05-18T11:03:01.256Z,1023.89
2023-05-18T11:04:01.212Z,1023.92
2023-05-18T11:05:01.224Z,1023.90
2023-05-18T11:06:01.209Z,1023.95
2023-05-18T11:07:01.208Z,1023.93
2023-05-18T11:08:01.195Z,1023.91
2023-05-18T11:09:01.188Z,1023.92
2023-05-18T11:10:01.193Z,1023.87
2023-05-18T11:11:01.190Z,1023.93
2023-05-18T11:12:01.174Z,1023.98
2023-05-18T11:13:01.173Z,1024.00
2023-05-18T11:14:01.165Z,1024.02
2023-05-18T11:15:01.165Z,1024.01
2023-05-18T11:16:01.250Z,1024.02
2023-05-18T11:17:01.151Z,1024.08
2023-05-18T11:18:01.216Z,1024.06
2023-05-18T11:19:01.176Z,1024.06
2023-05-18T11:20:01.162Z,1024.06
2023-05-18T11:21:01.128Z,1024.07
2023-05-18T11:22:01.123Z,1024.05
2023-05-18T11:23:01.117Z,1024.05
2023-05-18T11:24:01.114Z,1024.00
2023-05-18T11:25:01.118Z,1024.00
2023-05-18T11:26:01.109Z,1024.01
2023-05-18T11:27:01.108Z,1023.98
2023-05-18T11:28:01.093Z,1023.91
2023-05-18T11:29:01.088Z,1023.95
2023-05-18T11:30:14.747Z,1023.95
2023-05-18T11:31:01.098Z,1023.93
2023-05-18T11:33:01.255Z,1023.89
2023-05-18T11:34:01.068Z,1023.92
2023-05-18T11:35:01.068Z,1023.89
2023-05-18T11:36:01.062Z,1023.92
2023-05-18T11:37:01.050Z,1023.95
2023-05-18T11:38:01.038Z,1023.94
2023-05-18T11:39:01.042Z,1023.93
2023-05-18T11:40:04.409Z,1023.92
2023-05-18T11:41:01.044Z,1023.90
2023-05-18T11:42:01.073Z,1023.85
2023-05-18T11:43:01.024Z,1023.82
2023-05-18T11:44:01.025Z,1023.87
2023-05-18T11:45:01.009Z,1023.83
2023-05-18T11:46:01.002Z,1023.87
2023-05-18T11:47:01.035Z,1023.87
2023-05-18T11:48:01.071Z,1023.86
2023-05-18T11:49:01.047Z,1023.86
2023-05-18T11:50:00.988Z,1023.84
2023-05-18T11:51:01.026Z,1023.96
2023-05-18T11:52:00.980Z,1023.85
2023-05-18T11:53:00.974Z,1023.86
2023-05-18T11:54:00.965Z,1023.82
2023-05-18T11:55:00.963Z,1023.85
2023-05-18T11:56:00.966Z,1023.84
2023-05-18T11:57:00.955Z,1023.84
2023-05-18T11:58:00.963Z,1023.78
2023-05-18T11:59:00.948Z,1023.80
2023-05-18T12:00:00.941Z,1023.81
2023-05-18T12:01:00.934Z,1023.81
2023-05-18T12:02:01.032Z,1023.87
2023-05-18T12:03:01.083Z,1023.89
2023-05-18T12:04:01.039Z,1023.87
2023-05-18T12:05:00.916Z,1023.87
2023-05-18T12:06:00.908Z,1023.91